Kingsville, Texas
Current Conditions -  °F | °C
As of 11:56 AM on Saturday 20 Dec 2014 (Local Time) from KNQI Reporting Station
Overcast Overcast  
Wind Chill: 54°   Ceiling: 900
Heat Index: 54°   Visibility: 10mi
Dew Point: 51°   Wind: 7mph
Humidity: 90%   Direction: 350°N
Pressure: 30.21"   Gusts: NA
Location:  27.52°N, 97.85°W
Report Text: KNQI 201756Z AUTO 35006KT 10SM OVC009 12/11 A3021 RMK AO2 SLP227 T01220106 10122 20111 58005
Loading
Personal Weather Stations






























Interactive Weather Map New forecast layout! Learn more

10-Day Weather Forecast

Advertisements
Track Severe Weather on mobile